Minneapolis, Minnesota
Traffic Map
Current Weather Conditions
Minneapolis, Minnesota
Overcast
Overcast
72°
Feels Like: 72°
Wind Chill: 72° Ceiling: 14000
Heat Index: 72° Visibility: 10mi
Dew Point: 69° Wind: 0mph
Humidity: 91% Direction: ° ()
Pressure: 29.74in Gusts: 0mph
Raw Report DataKMSP 292353Z 00000KT 10SM SCT023 SCT090 BKN140 OVC250 22/21 A2974 RMK AO2 RAE10 SLP066 P0001 60046 T02220206 10267 20194 51004
Traffic Incident Summary
Active as of:
Severity:
Category:
InformationThere was an issue retrieving the traffic information for this location. Please try a different location or try again shortly.
Advertisements
Track Severe Weather on mobile